SKY173 KATL-KRDU
Flight info
| Callsign | SKY173 |
|---|---|
| Flight time | 0h 58m |
| Altitude | 29000 |
| Route | GAIRY2 IRQ PYRES DMSTR2 |
| Aircraft | A321/M-SDE3FGHIRWY/LB1 |
Departure
| Time | 2026-05-07 00:04 |
|---|---|
| Airport | Hartsfield Jackson Atlanta International Airport (KATL) |
Arrival
| Time | 2026-05-07 01:02 |
|---|---|
| Airport | Raleigh-Durham International Airport (KRDU) |
| Time | Latitude | Longitude | Altitude | Speed | Heading |
|---|---|---|---|---|---|
| 2026-05-06 23:20 | 33.64100 | -84.43530 | 1036 ft | 0 kts | 283° |
| 2026-05-06 23:26 | 33.64100 | -84.43529 | 1036 ft | 0 kts | 283° |
| 2026-05-06 23:51 | 33.64096 | -84.43509 | 1035 ft | 3 kts | 283° |
| 2026-05-06 23:52 | 33.64092 | -84.43487 | 1035 ft | 3 kts | 268° |
| 2026-05-06 23:52 | 33.64096 | -84.43464 | 1035 ft | 3 kts | 237° |
| 2026-05-06 23:52 | 33.64107 | -84.43448 | 1035 ft | 1 kts | 217° |
| 2026-05-06 23:55 | 33.64104 | -84.43450 | 1035 ft | 3 kts | 214° |
| 2026-05-06 23:55 | 33.64043 | -84.43460 | 1035 ft | 12 kts | 181° |
| 2026-05-06 23:55 | 33.63964 | -84.43461 | 1035 ft | 11 kts | 180° |
| 2026-05-06 23:55 | 33.63891 | -84.43461 | 1035 ft | 10 kts | 179° |
| 2026-05-06 23:56 | 33.63825 | -84.43460 | 1035 ft | 9 kts | 179° |
| 2026-05-06 23:56 | 33.63765 | -84.43460 | 1035 ft | 8 kts | 179° |
| 2026-05-06 23:56 | 33.63711 | -84.43459 | 1035 ft | 7 kts | 179° |
| 2026-05-06 23:56 | 33.63674 | -84.43425 | 1035 ft | 9 kts | 112° |
| 2026-05-06 23:57 | 33.63667 | -84.43314 | 1035 ft | 17 kts | 91° |
| 2026-05-06 23:57 | 33.63666 | -84.43171 | 1035 ft | 16 kts | 91° |
| 2026-05-06 23:57 | 33.63665 | -84.43042 | 1035 ft | 15 kts | 89° |
| 2026-05-06 23:57 | 33.63665 | -84.42916 | 1035 ft | 16 kts | 90° |
| 2026-05-06 23:58 | 33.63663 | -84.42782 | 1035 ft | 16 kts | 93° |
| 2026-05-06 23:58 | 33.63657 | -84.42660 | 1036 ft | 14 kts | 94° |
| 2026-05-06 23:58 | 33.63655 | -84.42552 | 1036 ft | 12 kts | 91° |
| 2026-05-06 23:58 | 33.63655 | -84.42448 | 1036 ft | 16 kts | 89° |
| 2026-05-06 23:59 | 33.63655 | -84.42279 | 1036 ft | 25 kts | 90° |
| 2026-05-06 23:59 | 33.63612 | -84.42120 | 1036 ft | 19 kts | 119° |
| 2026-05-06 23:59 | 33.63582 | -84.41975 | 1035 ft | 18 kts | 91° |
| 2026-05-06 23:59 | 33.63583 | -84.41833 | 1035 ft | 16 kts | 90° |
| 2026-05-07 00:00 | 33.63583 | -84.41702 | 1035 ft | 15 kts | 90° |
| 2026-05-07 00:00 | 33.63582 | -84.41571 | 1035 ft | 19 kts | 90° |
| 2026-05-07 00:00 | 33.63583 | -84.41399 | 1034 ft | 20 kts | 90° |
| 2026-05-07 00:00 | 33.63583 | -84.41236 | 1035 ft | 19 kts | 90° |
| 2026-05-07 00:01 | 33.63583 | -84.41090 | 1035 ft | 17 kts | 90° |
| 2026-05-07 00:01 | 33.63582 | -84.40970 | 1035 ft | 10 kts | 93° |
| 2026-05-07 00:01 | 33.63567 | -84.40930 | 1035 ft | 0 kts | 133° |
| 2026-05-07 00:01 | 33.63557 | -84.40921 | 1035 ft | 6 kts | 148° |
| 2026-05-07 00:02 | 33.63498 | -84.40916 | 1036 ft | 8 kts | 192° |
| 2026-05-07 00:02 | 33.63472 | -84.40955 | 1036 ft | 6 kts | 263° |
| 2026-05-07 00:02 | 33.63472 | -84.40968 | 1036 ft | 0 kts | 269° |
| 2026-05-07 00:02 | 33.63472 | -84.41001 | 1036 ft | 14 kts | 269° |
| 2026-05-07 00:03 | 33.63469 | -84.41319 | 1035 ft | 71 kts | 269° |
| 2026-05-07 00:03 | 33.63473 | -84.42145 | 1036 ft | 125 kts | 270° |
| 2026-05-07 00:03 | 33.63471 | -84.43365 | 1037 ft | 165 kts | 270° |
| 2026-05-07 00:03 | 33.63469 | -84.44805 | 1410 ft | 172 kts | 268° |
| 2026-05-07 00:04 | 33.63445 | -84.46227 | 2041 ft | 170 kts | 266° |
| 2026-05-07 00:04 | 33.63333 | -84.47618 | 2652 ft | 166 kts | 251° |
| 2026-05-07 00:04 | 33.62830 | -84.48907 | 2962 ft | 180 kts | 241° |
| 2026-05-07 00:04 | 33.62225 | -84.50328 | 3119 ft | 201 kts | 241° |
| 2026-05-07 00:05 | 33.61547 | -84.51918 | 3298 ft | 228 kts | 242° |
| 2026-05-07 00:05 | 33.60801 | -84.53679 | 3823 ft | 243 kts | 242° |
| 2026-05-07 00:05 | 33.60046 | -84.55481 | 4631 ft | 245 kts | 243° |
| 2026-05-07 00:05 | 33.59224 | -84.57281 | 5418 ft | 250 kts | 233° |
| 2026-05-07 00:06 | 33.57792 | -84.58466 | 6132 ft | 260 kts | 199° |
| 2026-05-07 00:06 | 33.55980 | -84.58778 | 6908 ft | 266 kts | 187° |
| 2026-05-07 00:06 | 33.54106 | -84.58789 | 7653 ft | 271 kts | 184° |
| 2026-05-07 00:06 | 33.52211 | -84.58703 | 8422 ft | 274 kts | 183° |
| 2026-05-07 00:07 | 33.50300 | -84.58606 | 9135 ft | 278 kts | 184° |
| 2026-05-07 00:07 | 33.48382 | -84.58308 | 9821 ft | 290 kts | 167° |
| 2026-05-07 00:07 | 33.46659 | -84.56942 | 10429 ft | 311 kts | 136° |
| 2026-05-07 00:07 | 33.45614 | -84.54590 | 10826 ft | 338 kts | 108° |
| 2026-05-07 00:08 | 33.45226 | -84.51708 | 10969 ft | 364 kts | 97° |
| 2026-05-07 00:08 | 33.45172 | -84.48581 | 11153 ft | 385 kts | 90° |
| 2026-05-07 00:08 | 33.45296 | -84.45346 | 11681 ft | 392 kts | 88° |
| 2026-05-07 00:08 | 33.45459 | -84.42068 | 12290 ft | 396 kts | 89° |
| 2026-05-07 00:09 | 33.45584 | -84.38755 | 12884 ft | 400 kts | 90° |
| 2026-05-07 00:09 | 33.45646 | -84.35448 | 13468 ft | 404 kts | 91° |
| 2026-05-07 00:09 | 33.45768 | -84.32062 | 14032 ft | 410 kts | 86° |
| 2026-05-07 00:09 | 33.46018 | -84.28644 | 14580 ft | 414 kts | 86° |
| 2026-05-07 00:10 | 33.46271 | -84.25189 | 15110 ft | 418 kts | 86° |
| 2026-05-07 00:10 | 33.46532 | -84.21708 | 15639 ft | 423 kts | 85° |
| 2026-05-07 00:10 | 33.46804 | -84.18192 | 16153 ft | 426 kts | 85° |
| 2026-05-07 00:10 | 33.47085 | -84.14631 | 16680 ft | 430 kts | 85° |
| 2026-05-07 00:11 | 33.47371 | -84.11050 | 17175 ft | 434 kts | 84° |
| 2026-05-07 00:11 | 33.47656 | -84.07487 | 17665 ft | 438 kts | 84° |
| 2026-05-07 00:11 | 33.47942 | -84.03838 | 18118 ft | 442 kts | 84° |
| 2026-05-07 00:11 | 33.48228 | -84.00155 | 18551 ft | 446 kts | 84° |
| 2026-05-07 00:12 | 33.48515 | -83.96444 | 18970 ft | 450 kts | 84° |
| 2026-05-07 00:12 | 33.48805 | -83.92699 | 19374 ft | 454 kts | 84° |
| 2026-05-07 00:12 | 33.49095 | -83.88920 | 19772 ft | 457 kts | 84° |
| 2026-05-07 00:12 | 33.49388 | -83.85112 | 20190 ft | 461 kts | 84° |
| 2026-05-07 00:13 | 33.49681 | -83.81272 | 20596 ft | 464 kts | 84° |
| 2026-05-07 00:13 | 33.49974 | -83.77415 | 21007 ft | 468 kts | 84° |
| 2026-05-07 00:13 | 33.50269 | -83.73525 | 21414 ft | 471 kts | 83° |
| 2026-05-07 00:13 | 33.50564 | -83.69597 | 21818 ft | 474 kts | 83° |
| 2026-05-07 00:14 | 33.50858 | -83.65640 | 22225 ft | 478 kts | 83° |
| 2026-05-07 00:14 | 33.51185 | -83.61726 | 22606 ft | 481 kts | 81° |
| 2026-05-07 00:14 | 33.51645 | -83.57748 | 22994 ft | 484 kts | 79° |
| 2026-05-07 00:14 | 33.52209 | -83.53767 | 23376 ft | 487 kts | 77° |
| 2026-05-07 00:15 | 33.52836 | -83.49753 | 23714 ft | 490 kts | 76° |
| 2026-05-07 00:15 | 33.53475 | -83.45723 | 24045 ft | 493 kts | 77° |
| 2026-05-07 00:15 | 33.54091 | -83.41685 | 24379 ft | 496 kts | 77° |
| 2026-05-07 00:15 | 33.54683 | -83.37608 | 24717 ft | 498 kts | 78° |
| 2026-05-07 00:16 | 33.55244 | -83.33550 | 25055 ft | 501 kts | 78° |
| 2026-05-07 00:16 | 33.55800 | -83.29406 | 25380 ft | 503 kts | 78° |
| 2026-05-07 00:16 | 33.56348 | -83.25279 | 25709 ft | 505 kts | 79° |
| 2026-05-07 00:16 | 33.56904 | -83.21103 | 26033 ft | 507 kts | 79° |
| 2026-05-07 00:17 | 33.57465 | -83.16914 | 26376 ft | 509 kts | 78° |
| 2026-05-07 00:17 | 33.58033 | -83.12713 | 26692 ft | 511 kts | 78° |
| 2026-05-07 00:17 | 33.58608 | -83.08490 | 27013 ft | 514 kts | 78° |
| 2026-05-07 00:17 | 33.59187 | -83.04258 | 27337 ft | 516 kts | 78° |
| 2026-05-07 00:18 | 33.59766 | -83.00009 | 27644 ft | 518 kts | 78° |
| 2026-05-07 00:18 | 33.60333 | -82.95797 | 27953 ft | 520 kts | 79° |
| 2026-05-07 00:18 | 33.60906 | -82.91505 | 28252 ft | 522 kts | 79° |
| 2026-05-07 00:18 | 33.61477 | -82.87214 | 28542 ft | 524 kts | 79° |
| 2026-05-07 00:19 | 33.61939 | -82.83752 | 28773 ft | 525 kts | 79° |
| 2026-05-07 00:19 | 33.62515 | -82.79414 | 28942 ft | 524 kts | 79° |
| 2026-05-07 00:19 | 33.63079 | -82.75142 | 28976 ft | 513 kts | 79° |
| 2026-05-07 00:19 | 33.63633 | -82.70938 | 28969 ft | 509 kts | 79° |
| 2026-05-07 00:20 | 33.64735 | -82.62562 | 29017 ft | 507 kts | 79° |
| 2026-05-07 00:20 | 33.65821 | -82.54267 | 29019 ft | 507 kts | 79° |
| 2026-05-07 00:21 | 33.66464 | -82.49355 | 29017 ft | 507 kts | 79° |
| 2026-05-07 00:21 | 33.67502 | -82.41329 | 29015 ft | 507 kts | 79° |
| 2026-05-07 00:22 | 33.68592 | -82.32979 | 29004 ft | 506 kts | 79° |
| 2026-05-07 00:22 | 33.69657 | -82.24680 | 28984 ft | 506 kts | 79° |
| 2026-05-07 00:23 | 33.70774 | -82.16341 | 28970 ft | 504 kts | 74° |
| 2026-05-07 00:23 | 33.72754 | -82.08311 | 28967 ft | 502 kts | 70° |
| 2026-05-07 00:24 | 33.74787 | -82.00267 | 28966 ft | 502 kts | 70° |
| 2026-05-07 00:24 | 33.76791 | -81.92283 | 28968 ft | 503 kts | 70° |
| 2026-05-07 00:25 | 33.78807 | -81.84244 | 28969 ft | 503 kts | 70° |
| 2026-05-07 00:25 | 33.80824 | -81.76183 | 28972 ft | 502 kts | 70° |
| 2026-05-07 00:26 | 33.82827 | -81.68148 | 28971 ft | 502 kts | 70° |
| 2026-05-07 00:26 | 33.84813 | -81.60149 | 28970 ft | 502 kts | 70° |
| 2026-05-07 00:27 | 33.87289 | -81.52364 | 28965 ft | 495 kts | 56° |
| 2026-05-07 00:27 | 33.90843 | -81.45303 | 28948 ft | 493 kts | 54° |
| 2026-05-07 00:28 | 33.94385 | -81.38234 | 28948 ft | 493 kts | 54° |
| 2026-05-07 00:28 | 33.97882 | -81.31203 | 28951 ft | 493 kts | 54° |
| 2026-05-07 00:29 | 34.01404 | -81.24126 | 28953 ft | 492 kts | 54° |
| 2026-05-07 00:30 | 34.08445 | -81.09999 | 28955 ft | 491 kts | 55° |
| 2026-05-07 00:30 | 34.11952 | -81.02927 | 28966 ft | 491 kts | 55° |
| 2026-05-07 00:31 | 34.15428 | -80.95902 | 28967 ft | 490 kts | 55° |
| 2026-05-07 00:31 | 34.18912 | -80.88850 | 28967 ft | 490 kts | 55° |
| 2026-05-07 00:32 | 34.22396 | -80.81767 | 28965 ft | 489 kts | 55° |
| 2026-05-07 00:32 | 34.25844 | -80.74744 | 28959 ft | 489 kts | 55° |
| 2026-05-07 00:33 | 34.29318 | -80.67680 | 28966 ft | 489 kts | 55° |
| 2026-05-07 00:33 | 34.32775 | -80.60638 | 28967 ft | 488 kts | 56° |
| 2026-05-07 00:34 | 34.36038 | -80.53968 | 28963 ft | 488 kts | 56° |
| 2026-05-07 00:34 | 34.39469 | -80.46955 | 28959 ft | 488 kts | 56° |
| 2026-05-07 00:35 | 34.42914 | -80.39881 | 28963 ft | 488 kts | 56° |
| 2026-05-07 00:35 | 34.46358 | -80.32792 | 28954 ft | 493 kts | 56° |
| 2026-05-07 00:36 | 34.48109 | -80.29189 | 28269 ft | 497 kts | 56° |
| 2026-05-07 00:36 | 34.49859 | -80.25581 | 27329 ft | 495 kts | 56° |
| 2026-05-07 00:36 | 34.51585 | -80.22011 | 26556 ft | 490 kts | 56° |
| 2026-05-07 00:36 | 34.53270 | -80.18518 | 25997 ft | 481 kts | 55° |
| 2026-05-07 00:37 | 34.54945 | -80.15043 | 25433 ft | 472 kts | 55° |
| 2026-05-07 00:37 | 34.56590 | -80.11631 | 24856 ft | 464 kts | 55° |
| 2026-05-07 00:37 | 34.58206 | -80.08283 | 24313 ft | 456 kts | 55° |
| 2026-05-07 00:37 | 34.59798 | -80.04986 | 23789 ft | 449 kts | 54° |
| 2026-05-07 00:38 | 34.61361 | -80.01745 | 23235 ft | 441 kts | 54° |
| 2026-05-07 00:38 | 34.62895 | -79.98558 | 22736 ft | 432 kts | 54° |
| 2026-05-07 00:38 | 34.64370 | -79.95487 | 22261 ft | 423 kts | 54° |
| 2026-05-07 00:38 | 34.65839 | -79.92422 | 21802 ft | 417 kts | 54° |
| 2026-05-07 00:39 | 34.67348 | -79.89431 | 21319 ft | 412 kts | 49° |
| 2026-05-07 00:39 | 34.69158 | -79.86783 | 20855 ft | 402 kts | 38° |
| 2026-05-07 00:39 | 34.71258 | -79.84578 | 20698 ft | 401 kts | 29° |
| 2026-05-07 00:39 | 34.73532 | -79.82590 | 20478 ft | 404 kts | 29° |
| 2026-05-07 00:40 | 34.75806 | -79.80591 | 20250 ft | 404 kts | 29° |
| 2026-05-07 00:40 | 34.78075 | -79.78582 | 20036 ft | 403 kts | 29° |
| 2026-05-07 00:40 | 34.80306 | -79.76602 | 19818 ft | 401 kts | 29° |
| 2026-05-07 00:40 | 34.82557 | -79.74604 | 19598 ft | 400 kts | 29° |
| 2026-05-07 00:41 | 34.84803 | -79.72612 | 19379 ft | 399 kts | 29° |
| 2026-05-07 00:41 | 34.87039 | -79.70628 | 19159 ft | 397 kts | 29° |
| 2026-05-07 00:41 | 34.89268 | -79.68651 | 18940 ft | 396 kts | 29° |
| 2026-05-07 00:41 | 34.91493 | -79.66678 | 18729 ft | 394 kts | 29° |
| 2026-05-07 00:42 | 34.93702 | -79.64718 | 18506 ft | 393 kts | 29° |
| 2026-05-07 00:42 | 34.95912 | -79.62760 | 18275 ft | 391 kts | 29° |
| 2026-05-07 00:42 | 34.98109 | -79.60814 | 18057 ft | 390 kts | 29° |
| 2026-05-07 00:42 | 35.00268 | -79.58897 | 17844 ft | 389 kts | 30° |
| 2026-05-07 00:43 | 35.02454 | -79.56955 | 17631 ft | 388 kts | 29° |
| 2026-05-07 00:43 | 35.04634 | -79.55018 | 17420 ft | 387 kts | 30° |
| 2026-05-07 00:43 | 35.06804 | -79.53086 | 17207 ft | 386 kts | 30° |
| 2026-05-07 00:43 | 35.08982 | -79.51177 | 16992 ft | 382 kts | 26° |
| 2026-05-07 00:44 | 35.11307 | -79.49695 | 16783 ft | 372 kts | 14° |
| 2026-05-07 00:44 | 35.13751 | -79.48784 | 16583 ft | 363 kts | 4° |
| 2026-05-07 00:44 | 35.16191 | -79.48377 | 16423 ft | 358 kts | 359° |
| 2026-05-07 00:44 | 35.18670 | -79.48052 | 16224 ft | 357 kts | 359° |
| 2026-05-07 00:45 | 35.21137 | -79.47724 | 16023 ft | 356 kts | 359° |
| 2026-05-07 00:45 | 35.23597 | -79.47395 | 15827 ft | 356 kts | 359° |
| 2026-05-07 00:45 | 35.26054 | -79.47065 | 15636 ft | 355 kts | 359° |
| 2026-05-07 00:45 | 35.28509 | -79.46735 | 15438 ft | 354 kts | 359° |
| 2026-05-07 00:46 | 35.30957 | -79.46403 | 15243 ft | 354 kts | 359° |
| 2026-05-07 00:46 | 35.33402 | -79.45950 | 15042 ft | 359 kts | 7° |
| 2026-05-07 00:46 | 35.35768 | -79.44870 | 14839 ft | 368 kts | 21° |
| 2026-05-07 00:46 | 35.37887 | -79.43144 | 14645 ft | 375 kts | 34° |
| 2026-05-07 00:47 | 35.39900 | -79.41109 | 14425 ft | 375 kts | 34° |
| 2026-05-07 00:47 | 35.41909 | -79.39080 | 14224 ft | 373 kts | 34° |
| 2026-05-07 00:47 | 35.43909 | -79.37064 | 14016 ft | 372 kts | 34° |
| 2026-05-07 00:47 | 35.45907 | -79.35052 | 13800 ft | 371 kts | 34° |
| 2026-05-07 00:48 | 35.47899 | -79.33047 | 13586 ft | 370 kts | 34° |
| 2026-05-07 00:48 | 35.49884 | -79.31032 | 13381 ft | 369 kts | 35° |
| 2026-05-07 00:48 | 35.51830 | -79.29046 | 13179 ft | 368 kts | 35° |
| 2026-05-07 00:48 | 35.53800 | -79.27047 | 12975 ft | 367 kts | 34° |
| 2026-05-07 00:49 | 35.55766 | -79.25060 | 12771 ft | 366 kts | 34° |
| 2026-05-07 00:49 | 35.57729 | -79.23081 | 12571 ft | 364 kts | 34° |
| 2026-05-07 00:49 | 35.59686 | -79.21110 | 12353 ft | 364 kts | 34° |
| 2026-05-07 00:49 | 35.61639 | -79.19141 | 12098 ft | 362 kts | 34° |
| 2026-05-07 00:50 | 35.63489 | -79.17026 | 11850 ft | 364 kts | 45° |
| 2026-05-07 00:50 | 35.65043 | -79.14578 | 11226 ft | 371 kts | 50° |
| 2026-05-07 00:50 | 35.66565 | -79.12038 | 10872 ft | 367 kts | 51° |
| 2026-05-07 00:50 | 35.68040 | -79.09554 | 10657 ft | 358 kts | 51° |
| 2026-05-07 00:51 | 35.69473 | -79.07129 | 10534 ft | 344 kts | 51° |
| 2026-05-07 00:51 | 35.70853 | -79.04788 | 10282 ft | 334 kts | 51° |
| 2026-05-07 00:51 | 35.72217 | -79.02485 | 9883 ft | 330 kts | 51° |
| 2026-05-07 00:51 | 35.73566 | -79.00215 | 9416 ft | 327 kts | 51° |
| 2026-05-07 00:52 | 35.74900 | -78.97977 | 9049 ft | 322 kts | 50° |
| 2026-05-07 00:52 | 35.76227 | -78.95757 | 8710 ft | 320 kts | 51° |
| 2026-05-07 00:52 | 35.77521 | -78.93593 | 8377 ft | 318 kts | 51° |
| 2026-05-07 00:52 | 35.78659 | -78.91221 | 8054 ft | 318 kts | 65° |
| 2026-05-07 00:53 | 35.79308 | -78.88625 | 7754 ft | 317 kts | 80° |
| 2026-05-07 00:53 | 35.79582 | -78.85943 | 7453 ft | 316 kts | 83° |
| 2026-05-07 00:53 | 35.79836 | -78.83302 | 7203 ft | 309 kts | 83° |
| 2026-05-07 00:53 | 35.80091 | -78.80709 | 7081 ft | 294 kts | 83° |
| 2026-05-07 00:54 | 35.80331 | -78.78287 | 6883 ft | 285 kts | 83° |
| 2026-05-07 00:54 | 35.80565 | -78.75905 | 6699 ft | 276 kts | 83° |
| 2026-05-07 00:54 | 35.80877 | -78.73553 | 6544 ft | 278 kts | 71° |
| 2026-05-07 00:54 | 35.81651 | -78.71398 | 6316 ft | 273 kts | 53° |
| 2026-05-07 00:55 | 35.82844 | -78.69639 | 6106 ft | 263 kts | 39° |
| 2026-05-07 00:55 | 35.84121 | -78.68096 | 5973 ft | 255 kts | 39° |
| 2026-05-07 00:55 | 35.85388 | -78.66561 | 5603 ft | 255 kts | 39° |
| 2026-05-07 00:55 | 35.86655 | -78.65024 | 5257 ft | 255 kts | 40° |
| 2026-05-07 00:56 | 35.87897 | -78.63513 | 4926 ft | 254 kts | 40° |
| 2026-05-07 00:56 | 35.89152 | -78.61983 | 4553 ft | 254 kts | 40° |
| 2026-05-07 00:56 | 35.90406 | -78.60457 | 4193 ft | 253 kts | 41° |
| 2026-05-07 00:56 | 35.91733 | -78.59080 | 3986 ft | 244 kts | 21° |
| 2026-05-07 00:57 | 35.93325 | -78.58629 | 3906 ft | 229 kts | 349° |
| 2026-05-07 00:57 | 35.94784 | -78.59178 | 3542 ft | 217 kts | 324° |
| 2026-05-07 00:57 | 35.96092 | -78.60102 | 3160 ft | 216 kts | 321° |
| 2026-05-07 00:57 | 35.97369 | -78.61069 | 3004 ft | 215 kts | 320° |
| 2026-05-07 00:58 | 35.98448 | -78.62244 | 2995 ft | 205 kts | 292° |
| 2026-05-07 00:58 | 35.98647 | -78.63883 | 3000 ft | 190 kts | 252° |
| 2026-05-07 00:58 | 35.98097 | -78.65251 | 2997 ft | 171 kts | 237° |
| 2026-05-07 00:58 | 35.97344 | -78.66345 | 2909 ft | 167 kts | 226° |
| 2026-05-07 00:59 | 35.95689 | -78.68328 | 2550 ft | 166 kts | 227° |
| 2026-05-07 00:59 | 35.94867 | -78.69340 | 2360 ft | 167 kts | 226° |
| 2026-05-07 00:59 | 35.94042 | -78.70359 | 2127 ft | 167 kts | 226° |
| 2026-05-07 01:00 | 35.93222 | -78.71373 | 1915 ft | 166 kts | 226° |
| 2026-05-07 01:00 | 35.92418 | -78.72369 | 1694 ft | 164 kts | 226° |
| 2026-05-07 01:00 | 35.91644 | -78.73326 | 1483 ft | 151 kts | 226° |
| 2026-05-07 01:00 | 35.90929 | -78.74210 | 1297 ft | 142 kts | 225° |
| 2026-05-07 01:01 | 35.90243 | -78.75059 | 1130 ft | 139 kts | 225° |
| 2026-05-07 01:01 | 35.89561 | -78.75902 | 945 ft | 139 kts | 223° |
| 2026-05-07 01:01 | 35.88867 | -78.76760 | 752 ft | 143 kts | 223° |
| 2026-05-07 01:01 | 35.88166 | -78.77627 | 572 ft | 143 kts | 223° |
| 2026-05-07 01:02 | 35.87476 | -78.78476 | 428 ft | 134 kts | 224° |
| 2026-05-07 01:02 | 35.86968 | -78.79110 | 428 ft | 77 kts | 225° |
| 2026-05-07 01:02 | 35.86788 | -78.79369 | 428 ft | 27 kts | 245° |
| 2026-05-07 01:02 | 35.86774 | -78.79490 | 436 ft | 8 kts | 288° |
| 2026-05-07 01:03 | 35.86779 | -78.79500 | 436 ft | 0 kts | 300° |
| 2026-05-07 01:03 | 35.86787 | -78.79517 | 428 ft | 7 kts | 299° |
| 2026-05-07 01:03 | 35.86817 | -78.79574 | 427 ft | 11 kts | 310° |
| 2026-05-07 01:04 | 35.86899 | -78.79672 | 430 ft | 20 kts | 316° |
| 2026-05-07 01:04 | 35.87002 | -78.79796 | 412 ft | 18 kts | 315° |
| 2026-05-07 01:04 | 35.87081 | -78.79893 | 410 ft | 16 kts | 313° |
| 2026-05-07 01:04 | 35.87162 | -78.79982 | 405 ft | 16 kts | 326° |
| 2026-05-07 01:05 | 35.87212 | -78.80017 | 403 ft | 5 kts | 334° |
| 2026-05-07 01:05 | 35.87264 | -78.80046 | 393 ft | 4 kts | 335° |
| 2026-05-07 01:05 | 35.87264 | -78.80047 | 393 ft | 0 kts | 335° |
| 2026-05-07 01:06 | 35.87282 | -78.80056 | 393 ft | 7 kts | 338° |
| 2026-05-07 01:06 | 35.87332 | -78.80039 | 392 ft | 8 kts | 38° |
| 2026-05-07 01:06 | 35.87374 | -78.79989 | 392 ft | 8 kts | 44° |
| 2026-05-07 01:07 | 35.87416 | -78.79939 | 391 ft | 10 kts | 45° |
| 2026-05-07 01:07 | 35.87445 | -78.79902 | 392 ft | 0 kts | 45° |
| 2026-05-07 01:08 | 35.87473 | -78.79868 | 391 ft | 12 kts | 45° |
| 2026-05-07 01:08 | 35.87515 | -78.79803 | 391 ft | 8 kts | 83° |
| 2026-05-07 01:08 | 35.87487 | -78.79753 | 392 ft | 7 kts | 133° |
| 2026-05-07 01:08 | 35.87477 | -78.79713 | 392 ft | 4 kts | 72° |
| 2026-05-07 01:09 | 35.87488 | -78.79687 | 392 ft | 4 kts | 58° |
| 2026-05-07 01:09 | 35.87499 | -78.79668 | 392 ft | 1 kts | 55° |
| 2026-05-07 01:09 | 35.87499 | -78.79667 | 392 ft | 0 kts | 55° |